createdAt,value
2024-05-09T00:03:52.831Z,59.00
2024-05-09T00:08:55.763Z,59.58
2024-05-09T00:13:58.744Z,60.99
2024-05-09T00:19:04.470Z,60.97
2024-05-09T00:24:07.911Z,61.74
2024-05-09T00:29:11.050Z,62.07
2024-05-09T00:34:16.718Z,63.84
2024-05-09T00:39:19.682Z,64.31
2024-05-09T00:44:22.810Z,65.91
2024-05-09T00:49:29.798Z,67.03
2024-05-09T00:54:33.927Z,67.96
2024-05-09T00:59:37.514Z,68.95
2024-05-09T01:04:43.273Z,69.29
2024-05-09T01:09:46.317Z,70.12
2024-05-09T01:14:49.463Z,70.79
2024-05-09T01:19:54.994Z,71.37
2024-05-09T01:25:00.556Z,72.22
2024-05-09T01:30:08.986Z,73.51
2024-05-09T01:35:12.381Z,74.87
2024-05-09T01:40:22.141Z,75.40
2024-05-09T01:45:28.161Z,76.33
2024-05-09T01:55:39.646Z,78.33
2024-05-09T02:00:43.576Z,78.32
2024-05-09T02:05:47.777Z,79.63
2024-05-09T02:10:53.919Z,79.80
2024-05-09T02:15:56.970Z,80.00
2024-05-09T02:21:00.080Z,80.71
2024-05-09T02:26:05.746Z,81.21
2024-05-09T02:31:08.718Z,81.06
2024-05-09T02:36:12.667Z,82.13
2024-05-09T02:41:18.237Z,82.90
2024-05-09T02:46:21.206Z,83.74
2024-05-09T02:51:24.263Z,84.17
2024-05-09T02:56:29.859Z,84.71
2024-05-09T03:01:32.935Z,84.94
2024-05-09T03:06:36.064Z,85.84
2024-05-09T03:11:41.648Z,85.88
2024-05-09T03:16:44.776Z,85.93
2024-05-09T03:21:47.787Z,86.32
2024-05-09T03:26:53.299Z,86.63
2024-05-09T03:31:56.316Z,86.57
2024-05-09T03:36:59.355Z,86.59
2024-05-09T03:42:04.889Z,87.06
2024-05-09T03:47:07.830Z,86.73
2024-05-09T03:52:10.965Z,86.74
2024-05-09T03:57:16.489Z,87.32
2024-05-09T04:02:19.505Z,87.26
2024-05-09T04:07:22.530Z,87.35
2024-05-09T04:12:28.193Z,86.97
2024-05-09T04:17:31.633Z,86.72
2024-05-09T04:22:34.646Z,86.65
2024-05-09T04:27:40.198Z,86.69
2024-05-09T04:32:43.858Z,86.67
2024-05-09T04:37:47.048Z,86.92
2024-05-09T04:42:52.794Z,86.35
2024-05-09T04:47:57.509Z,85.46
2024-05-09T04:53:00.837Z,84.83
2024-05-09T04:58:06.572Z,84.67
2024-05-09T05:03:13.221Z,84.35
2024-05-09T05:08:19.799Z,83.70
2024-05-09T05:13:25.725Z,83.37
2024-05-09T05:18:30.041Z,81.89
2024-05-09T05:23:33.156Z,81.26
2024-05-09T05:28:39.800Z,79.97
2024-05-09T05:33:42.911Z,79.47
2024-05-09T05:38:46.031Z,78.11
2024-05-09T05:43:51.853Z,76.89
2024-05-09T05:48:55.170Z,77.38
2024-05-09T05:53:58.161Z,76.86
2024-05-09T05:59:03.809Z,75.70
2024-05-09T06:04:06.933Z,74.56
2024-05-09T06:09:10.045Z,73.65
2024-05-09T06:14:33.816Z,72.42
2024-05-09T06:19:39.755Z,71.84
2024-05-09T06:24:42.731Z,71.21
2024-05-09T06:29:59.782Z,69.28
2024-05-09T06:35:02.850Z,68.20
2024-05-09T06:40:09.738Z,67.04
2024-05-09T06:45:15.853Z,64.93
2024-05-09T06:50:23.959Z,62.12
2024-05-09T06:55:30.820Z,57.88
2024-05-09T07:00:39.798Z,56.81
2024-05-09T07:05:45.066Z,55.65
2024-05-09T07:10:50.022Z,54.59
2024-05-09T07:15:55.774Z,52.71
2024-05-09T07:20:59.902Z,53.42
2024-05-09T07:26:02.883Z,54.98
2024-05-09T07:31:10.922Z,53.42
2024-05-09T07:36:13.998Z,53.17
2024-05-09T07:41:17.482Z,51.61
2024-05-09T07:47:17.273Z,51.87
2024-05-09T07:53:14.454Z,51.18
2024-05-09T07:57:09.292Z,51.67
2024-05-09T08:02:15.035Z,50.26
2024-05-09T08:07:19.098Z,49.16
2024-05-09T08:12:22.253Z,48.49
2024-05-09T08:17:29.131Z,48.65
2024-05-09T08:22:32.761Z,47.96
2024-05-09T08:27:37.002Z,48.71
2024-05-09T08:32:43.135Z,48.69
2024-05-09T08:37:49.991Z,47.60
2024-05-09T08:42:56.128Z,46.23
2024-05-09T08:48:05.966Z,44.89
2024-05-09T08:53:10.059Z,42.29
2024-05-09T08:58:16.319Z,42.57
2024-05-09T09:03:28.227Z,41.71
2024-05-09T09:08:31.592Z,39.38
2024-05-09T09:13:34.766Z,37.94
2024-05-09T09:18:40.536Z,36.71
2024-05-09T09:23:43.687Z,36.78
2024-05-09T09:28:47.477Z,36.38
2024-05-09T09:33:53.665Z,36.60
2024-05-09T09:38:59.425Z,36.09
2024-05-09T09:44:04.189Z,35.84
2024-05-09T09:49:10.515Z,35.93
2024-05-09T09:54:15.527Z,35.37
2024-05-09T09:59:19.666Z,36.29
2024-05-09T10:04:25.699Z,36.44
2024-05-09T10:09:29.609Z,36.52
2024-05-09T10:14:34.650Z,35.98
2024-05-09T10:19:40.328Z,35.47
2024-05-09T10:24:51.119Z,35.14
2024-05-09T10:29:55.407Z,34.83
2024-05-09T10:35:11.722Z,35.13
2024-05-09T10:40:26.001Z,34.53
2024-05-09T10:45:32.754Z,34.95
2024-05-09T10:50:43.747Z,35.20
2024-05-09T10:55:46.839Z,35.93
2024-05-09T11:00:49.922Z,36.01
2024-05-09T11:05:56.310Z,35.39
2024-05-09T11:10:59.973Z,35.65
2024-05-09T11:16:04.160Z,33.52
2024-05-09T11:21:15.327Z,34.23
2024-05-09T11:26:19.650Z,35.32
2024-05-09T11:31:22.949Z,36.65
2024-05-09T11:36:28.884Z,36.53
2024-05-09T11:41:35.951Z,34.04
2024-05-09T11:46:42.518Z,33.92
2024-05-09T11:51:48.138Z,34.92
2024-05-09T11:56:51.685Z,33.82
2024-05-09T12:01:54.778Z,33.61
2024-05-09T12:07:00.585Z,32.94
2024-05-09T12:12:03.818Z,33.08
2024-05-09T12:17:07.242Z,32.73
2024-05-09T12:22:12.985Z,33.12
2024-05-09T12:27:16.085Z,33.30
2024-05-09T12:32:19.196Z,33.34
2024-05-09T12:37:25.006Z,33.09
2024-05-09T12:42:29.472Z,33.06
2024-05-09T12:47:34.356Z,33.54
2024-05-09T12:52:40.047Z,33.52
2024-05-09T12:57:43.205Z,32.91
2024-05-09T13:02:46.305Z,33.15
2024-05-09T13:07:52.063Z,32.81
2024-05-09T13:12:55.185Z,32.40
2024-05-09T13:18:01.646Z,32.42
2024-05-09T13:23:10.166Z,31.85
2024-05-09T13:28:13.299Z,32.46
2024-05-09T13:33:16.653Z,31.72
2024-05-09T13:38:23.160Z,31.69
2024-05-09T13:43:26.258Z,32.36
2024-05-09T13:48:29.635Z,30.67
2024-05-09T13:53:35.391Z,31.14
2024-05-09T13:58:38.553Z,31.83
2024-05-09T14:03:41.951Z,31.39
2024-05-09T14:08:47.674Z,30.80
2024-05-09T14:13:50.733Z,30.72
2024-05-09T14:18:53.788Z,30.88
2024-05-09T14:24:01.199Z,31.49
2024-05-09T14:29:04.310Z,30.94
2024-05-09T14:34:07.450Z,30.31
2024-05-09T14:39:13.125Z,31.51
2024-05-09T14:44:16.094Z,31.62
2024-05-09T14:49:19.348Z,32.14
2024-05-09T14:54:25.053Z,30.49
2024-05-09T14:59:28.275Z,30.64
2024-05-09T15:04:31.508Z,30.42
2024-05-09T15:09:39.036Z,30.31
2024-05-09T15:14:42.357Z,30.33
2024-05-09T15:19:47.891Z,29.89
2024-05-09T15:24:54.420Z,29.99
2024-05-09T15:29:57.465Z,30.04
2024-05-09T15:35:00.520Z,30.07
2024-05-09T15:40:12.122Z,30.00
2024-05-09T15:45:18.190Z,29.88
2024-05-09T15:50:28.843Z,29.25
2024-05-09T15:55:42.256Z,28.56
2024-05-09T16:00:47.858Z,27.92
2024-05-09T16:05:55.048Z,28.24
2024-05-09T16:11:01.018Z,28.96
2024-05-09T16:16:04.560Z,28.98
2024-05-09T16:21:08.466Z,28.58
2024-05-09T16:26:14.113Z,27.65
2024-05-09T16:31:17.398Z,25.39
2024-05-09T16:36:20.473Z,24.35
2024-05-09T16:41:26.172Z,23.98
2024-05-09T16:46:29.302Z,23.42
2024-05-09T16:51:32.429Z,22.56
2024-05-09T16:56:38.252Z,22.05
2024-05-09T17:01:41.274Z,22.49
2024-05-09T17:06:44.396Z,22.77
2024-05-09T17:11:50.088Z,23.03
2024-05-09T17:16:53.486Z,22.55
2024-05-09T17:21:56.492Z,22.77
2024-05-09T17:27:02.654Z,24.56
2024-05-09T17:32:06.077Z,24.68
2024-05-09T17:37:09.186Z,25.20
2024-05-09T17:42:14.838Z,25.93
2024-05-09T17:47:18.084Z,27.83
2024-05-09T17:52:21.686Z,28.82
2024-05-09T17:57:29.220Z,30.88
2024-05-09T18:02:33.585Z,32.24
2024-05-09T18:07:36.622Z,33.54
2024-05-09T18:12:42.448Z,34.23
2024-05-09T18:17:45.762Z,35.53
2024-05-09T18:22:48.899Z,36.44
2024-05-09T18:27:54.607Z,36.49
2024-05-09T18:32:57.788Z,37.94
2024-05-09T18:38:00.823Z,38.13
2024-05-09T18:43:08.808Z,40.44
2024-05-09T18:48:12.683Z,40.53
2024-05-09T18:53:20.985Z,41.69
2024-05-09T18:58:26.898Z,43.05
2024-05-09T19:03:30.389Z,42.17
2024-05-09T19:08:33.851Z,43.75
2024-05-09T19:13:39.630Z,46.37
2024-05-09T19:18:42.867Z,46.55
2024-05-09T19:23:50.923Z,48.23
2024-05-09T19:28:58.164Z,49.15
2024-05-09T19:34:01.364Z,50.80
2024-05-09T19:39:04.465Z,52.32
2024-05-09T19:44:11.459Z,52.96
2024-05-09T19:49:14.603Z,53.93
2024-05-09T19:54:17.653Z,54.63
2024-05-09T19:59:23.270Z,55.83
2024-05-09T20:04:26.473Z,56.15
2024-05-09T20:09:29.655Z,57.47
2024-05-09T20:14:35.285Z,58.49
2024-05-09T20:19:38.419Z,60.23
2024-05-09T20:24:41.540Z,60.93
2024-05-09T20:29:47.439Z,61.11
2024-05-09T20:34:51.772Z,62.36
2024-05-09T20:39:54.742Z,62.59
2024-05-09T20:45:00.373Z,63.96
2024-05-09T20:50:05.177Z,64.96
2024-05-09T20:55:10.886Z,65.11
2024-05-09T21:00:19.284Z,65.65
2024-05-09T21:05:28.835Z,66.39
2024-05-09T21:10:33.542Z,66.48
2024-05-09T21:15:40.056Z,66.73
2024-05-09T21:20:43.132Z,67.84
2024-05-09T21:25:46.114Z,68.60
2024-05-09T21:30:51.730Z,69.16
2024-05-09T21:35:54.709Z,69.78
2024-05-09T21:40:57.889Z,70.84
2024-05-09T21:46:03.562Z,71.30
2024-05-09T21:51:06.610Z,71.50
2024-05-09T21:56:10.779Z,72.39
2024-05-09T22:01:16.510Z,72.99
2024-05-09T22:06:19.595Z,73.49
2024-05-09T22:11:22.627Z,73.77
2024-05-09T22:16:28.240Z,73.92
2024-05-09T22:21:31.330Z,74.17
2024-05-09T22:26:34.233Z,74.28
2024-05-09T22:31:39.886Z,74.38
2024-05-09T22:36:42.853Z,74.52
2024-05-09T22:41:45.889Z,75.22
2024-05-09T22:46:51.491Z,75.18
2024-05-09T22:51:54.604Z,75.20
2024-05-09T22:56:57.615Z,75.53
2024-05-09T23:02:03.379Z,76.21
2024-05-09T23:07:06.736Z,76.16
2024-05-09T23:12:10.329Z,76.36
2024-05-09T23:17:16.069Z,76.28
2024-05-09T23:22:19.307Z,76.89
2024-05-09T23:27:22.310Z,76.63
2024-05-09T23:32:27.926Z,76.55
2024-05-09T23:37:30.892Z,76.68
2024-05-09T23:42:33.907Z,77.19
2024-05-09T23:47:39.518Z,77.21
2024-05-09T23:52:42.508Z,77.14
2024-05-09T23:57:45.649Z,77.05
